Edgemont, South Dakota
Current Conditions -  °F | °C
As of 6:53 PM on Friday 28 Nov 2014 (Local Time) from KCUT Reporting Station
Clear Clear  
Wind Chill: 41°   Ceiling: Unl
Heat Index: 47°   Visibility: 10mi
Dew Point: 22°   Wind: 15mph
Humidity: 37%   Direction: 260°W
Pressure: 29.62"   Gusts: 26mph
Location:  43.3°N, 103.83°W
Report Text: KCUT 290153Z AUTO 26013G23KT 10SM CLR 08/M06 A2962 RMK AO2 SLP007 T00831056
Loading
Personal Weather Stations






























Interactive Weather Map New forecast layout! Learn more

10-Day Weather Forecast

Advertisements
Track Severe Weather on mobile